sensor_id;sensor_type;location;lat;lon;timestamp;P1;durP1;ratioP1;P2;durP2;ratioP2
12921;SDS011;6528;48.086;16.282;2023-11-21T00:01:33;1.60;;;1.50;;
12921;SDS011;6528;48.086;16.282;2023-11-21T00:04:01;1.83;;;1.63;;
12921;SDS011;6528;48.086;16.282;2023-11-21T00:06:28;2.50;;;1.50;;
12921;SDS011;6528;48.086;16.282;2023-11-21T00:08:56;2.03;;;1.93;;
12921;SDS011;6528;48.086;16.282;2023-11-21T00:11:24;1.77;;;1.67;;
12921;SDS011;6528;48.086;16.282;2023-11-21T00:13:51;2.10;;;1.90;;
12921;SDS011;6528;48.086;16.282;2023-11-21T00:16:19;3.50;;;1.83;;
12921;SDS011;6528;48.086;16.282;2023-11-21T00:18:46;2.73;;;1.57;;
12921;SDS011;6528;48.086;16.282;2023-11-21T00:21:14;1.60;;;1.50;;
12921;SDS011;6528;48.086;16.282;2023-11-21T00:23:42;1.60;;;1.50;;
12921;SDS011;6528;48.086;16.282;2023-11-21T00:26:09;2.50;;;2.20;;
12921;SDS011;6528;48.086;16.282;2023-11-21T00:28:36;1.50;;;1.10;;
12921;SDS011;6528;48.086;16.282;2023-11-21T00:31:04;1.83;;;1.60;;
12921;SDS011;6528;48.086;16.282;2023-11-21T00:33:32;1.70;;;1.60;;
12921;SDS011;6528;48.086;16.282;2023-11-21T00:35:59;1.80;;;1.70;;
12921;SDS011;6528;48.086;16.282;2023-11-21T00:38:27;1.50;;;1.37;;
12921;SDS011;6528;48.086;16.282;2023-11-21T00:40:54;1.60;;;1.50;;
12921;SDS011;6528;48.086;16.282;2023-11-21T00:43:22;1.73;;;1.63;;
12921;SDS011;6528;48.086;16.282;2023-11-21T00:45:51;2.20;;;1.40;;
12921;SDS011;6528;48.086;16.282;2023-11-21T00:48:18;1.67;;;1.53;;
12921;SDS011;6528;48.086;16.282;2023-11-21T00:50:46;1.70;;;1.60;;
12921;SDS011;6528;48.086;16.282;2023-11-21T00:53:13;2.10;;;1.50;;
12921;SDS011;6528;48.086;16.282;2023-11-21T00:55:41;1.40;;;1.30;;
12921;SDS011;6528;48.086;16.282;2023-11-21T00:58:08;1.83;;;1.63;;
12921;SDS011;6528;48.086;16.282;2023-11-21T01:00:37;2.00;;;1.73;;
12921;SDS011;6528;48.086;16.282;2023-11-21T01:03:06;1.63;;;1.53;;
12921;SDS011;6528;48.086;16.282;2023-11-21T01:05:34;1.70;;;1.60;;
12921;SDS011;6528;48.086;16.282;2023-11-21T01:08:02;2.93;;;1.60;;
12921;SDS011;6528;48.086;16.282;2023-11-21T01:10:29;1.50;;;1.40;;
12921;SDS011;6528;48.086;16.282;2023-11-21T01:12:57;1.70;;;1.60;;
12921;SDS011;6528;48.086;16.282;2023-11-21T01:15:24;1.30;;;1.20;;
12921;SDS011;6528;48.086;16.282;2023-11-21T01:17:52;1.40;;;1.30;;
12921;SDS011;6528;48.086;16.282;2023-11-21T01:20:20;2.10;;;1.90;;
12921;SDS011;6528;48.086;16.282;2023-11-21T01:22:47;1.90;;;1.40;;
12921;SDS011;6528;48.086;16.282;2023-11-21T01:25:15;2.00;;;1.37;;
12921;SDS011;6528;48.086;16.282;2023-11-21T01:27:43;1.60;;;1.50;;
12921;SDS011;6528;48.086;16.282;2023-11-21T01:30:10;2.10;;;1.30;;
12921;SDS011;6528;48.086;16.282;2023-11-21T01:32:38;1.37;;;1.27;;
12921;SDS011;6528;48.086;16.282;2023-11-21T01:35:06;2.10;;;1.67;;
12921;SDS011;6528;48.086;16.282;2023-11-21T01:37:35;2.30;;;1.50;;
12921;SDS011;6528;48.086;16.282;2023-11-21T01:40:04;1.50;;;1.40;;
12921;SDS011;6528;48.086;16.282;2023-11-21T01:42:41;1.00;;;1.00;;
12921;SDS011;6528;48.086;16.282;2023-11-21T01:45:10;1.20;;;1.10;;
12921;SDS011;6528;48.086;16.282;2023-11-21T01:47:40;1.27;;;1.17;;
12921;SDS011;6528;48.086;16.282;2023-11-21T01:50:09;1.60;;;1.50;;
12921;SDS011;6528;48.086;16.282;2023-11-21T01:52:41;1.60;;;1.50;;
12921;SDS011;6528;48.086;16.282;2023-11-21T01:55:12;1.50;;;1.40;;
12921;SDS011;6528;48.086;16.282;2023-11-21T01:57:54;1.90;;;1.40;;
12921;SDS011;6528;48.086;16.282;2023-11-21T02:00:23;1.70;;;1.23;;
12921;SDS011;6528;48.086;16.282;2023-11-21T02:02:51;1.40;;;1.30;;
12921;SDS011;6528;48.086;16.282;2023-11-21T02:05:19;1.50;;;1.40;;
12921;SDS011;6528;48.086;16.282;2023-11-21T02:07:48;1.40;;;1.20;;
12921;SDS011;6528;48.086;16.282;2023-11-21T02:10:15;1.37;;;1.23;;
12921;SDS011;6528;48.086;16.282;2023-11-21T02:12:43;2.00;;;1.07;;
12921;SDS011;6528;48.086;16.282;2023-11-21T02:15:12;1.37;;;1.27;;
12921;SDS011;6528;48.086;16.282;2023-11-21T02:17:47;1.30;;;1.07;;
12921;SDS011;6528;48.086;16.282;2023-11-21T02:20:19;1.50;;;1.40;;
12921;SDS011;6528;48.086;16.282;2023-11-21T02:27:54;1.47;;;1.10;;
12921;SDS011;6528;48.086;16.282;2023-11-21T02:30:23;2.10;;;1.20;;
12921;SDS011;6528;48.086;16.282;2023-11-21T02:33:00;1.00;;;0.93;;
12921;SDS011;6528;48.086;16.282;2023-11-21T02:35:29;1.10;;;0.83;;
12921;SDS011;6528;48.086;16.282;2023-11-21T02:37:58;1.50;;;1.40;;
12921;SDS011;6528;48.086;16.282;2023-11-21T02:40:26;1.10;;;1.03;;
12921;SDS011;6528;48.086;16.282;2023-11-21T02:42:54;1.10;;;1.03;;
12921;SDS011;6528;48.086;16.282;2023-11-21T02:45:22;1.07;;;1.07;;
12921;SDS011;6528;48.086;16.282;2023-11-21T02:47:51;1.87;;;1.10;;
12921;SDS011;6528;48.086;16.282;2023-11-21T02:50:20;2.03;;;1.10;;
12921;SDS011;6528;48.086;16.282;2023-11-21T02:52:49;1.37;;;1.27;;
12921;SDS011;6528;48.086;16.282;2023-11-21T02:55:18;1.00;;;1.00;;
12921;SDS011;6528;48.086;16.282;2023-11-21T02:57:45;1.30;;;1.20;;
12921;SDS011;6528;48.086;16.282;2023-11-21T03:00:12;1.00;;;0.90;;
12921;SDS011;6528;48.086;16.282;2023-11-21T03:02:42;1.73;;;1.27;;
12921;SDS011;6528;48.086;16.282;2023-11-21T03:05:10;1.17;;;1.00;;
12921;SDS011;6528;48.086;16.282;2023-11-21T03:07:38;0.97;;;0.90;;
12921;SDS011;6528;48.086;16.282;2023-11-21T03:10:07;1.23;;;1.13;;
12921;SDS011;6528;48.086;16.282;2023-11-21T03:12:38;1.23;;;1.00;;
12921;SDS011;6528;48.086;16.282;2023-11-21T03:15:06;1.90;;;1.07;;
12921;SDS011;6528;48.086;16.282;2023-11-21T03:17:37;1.00;;;1.00;;
12921;SDS011;6528;48.086;16.282;2023-11-21T03:20:05;0.90;;;0.90;;
12921;SDS011;6528;48.086;16.282;2023-11-21T03:22:38;1.10;;;1.00;;
12921;SDS011;6528;48.086;16.282;2023-11-21T03:25:06;1.17;;;1.03;;
12921;SDS011;6528;48.086;16.282;2023-11-21T03:27:37;1.60;;;1.20;;
12921;SDS011;6528;48.086;16.282;2023-11-21T03:30:07;1.43;;;1.00;;
12921;SDS011;6528;48.086;16.282;2023-11-21T03:32:36;1.07;;;1.03;;
12921;SDS011;6528;48.086;16.282;2023-11-21T03:35:03;0.87;;;0.87;;
12921;SDS011;6528;48.086;16.282;2023-11-21T03:37:33;1.33;;;0.90;;
12921;SDS011;6528;48.086;16.282;2023-11-21T03:40:00;0.90;;;0.90;;
12921;SDS011;6528;48.086;16.282;2023-11-21T03:42:31;1.00;;;0.70;;
12921;SDS011;6528;48.086;16.282;2023-11-21T03:44:58;0.97;;;0.80;;
12921;SDS011;6528;48.086;16.282;2023-11-21T03:47:28;0.83;;;0.83;;
12921;SDS011;6528;48.086;16.282;2023-11-21T03:49:56;1.00;;;1.00;;
12921;SDS011;6528;48.086;16.282;2023-11-21T03:52:24;1.70;;;0.80;;
12921;SDS011;6528;48.086;16.282;2023-11-21T03:54:51;1.10;;;0.90;;
12921;SDS011;6528;48.086;16.282;2023-11-21T03:57:19;1.27;;;0.83;;
12921;SDS011;6528;48.086;16.282;2023-11-21T03:59:47;1.40;;;1.00;;
12921;SDS011;6528;48.086;16.282;2023-11-21T04:02:15;2.43;;;1.00;;
12921;SDS011;6528;48.086;16.282;2023-11-21T04:04:42;1.47;;;0.80;;
12921;SDS011;6528;48.086;16.282;2023-11-21T04:07:10;0.70;;;0.70;;
12921;SDS011;6528;48.086;16.282;2023-11-21T04:09:40;0.73;;;0.60;;
12921;SDS011;6528;48.086;16.282;2023-11-21T04:12:07;1.17;;;1.07;;
12921;SDS011;6528;48.086;16.282;2023-11-21T04:14:38;1.00;;;0.87;;
12921;SDS011;6528;48.086;16.282;2023-11-21T04:17:05;1.13;;;0.80;;
12921;SDS011;6528;48.086;16.282;2023-11-21T04:19:33;0.93;;;0.70;;
12921;SDS011;6528;48.086;16.282;2023-11-21T04:22:00;0.93;;;0.93;;
12921;SDS011;6528;48.086;16.282;2023-11-21T04:24:28;0.73;;;0.73;;
12921;SDS011;6528;48.086;16.282;2023-11-21T04:26:55;1.10;;;1.00;;
12921;SDS011;6528;48.086;16.282;2023-11-21T04:29:23;1.40;;;0.70;;
12921;SDS011;6528;48.086;16.282;2023-11-21T04:31:50;1.03;;;0.97;;
12921;SDS011;6528;48.086;16.282;2023-11-21T04:34:17;1.33;;;0.83;;
12921;SDS011;6528;48.086;16.282;2023-11-21T04:36:45;0.80;;;0.80;;
12921;SDS011;6528;48.086;16.282;2023-11-21T04:39:12;1.13;;;1.03;;
12921;SDS011;6528;48.086;16.282;2023-11-21T04:41:40;1.20;;;1.10;;
12921;SDS011;6528;48.086;16.282;2023-11-21T04:44:07;1.17;;;1.07;;
12921;SDS011;6528;48.086;16.282;2023-11-21T04:46:34;1.23;;;1.10;;
12921;SDS011;6528;48.086;16.282;2023-11-21T04:49:02;0.70;;;0.70;;
12921;SDS011;6528;48.086;16.282;2023-11-21T04:51:30;0.70;;;0.70;;
12921;SDS011;6528;48.086;16.282;2023-11-21T04:53:58;1.00;;;0.80;;
12921;SDS011;6528;48.086;16.282;2023-11-21T04:56:53;1.80;;;1.10;;
12921;SDS011;6528;48.086;16.282;2023-11-21T04:59:21;0.93;;;0.80;;
12921;SDS011;6528;48.086;16.282;2023-11-21T05:01:51;0.87;;;0.70;;
12921;SDS011;6528;48.086;16.282;2023-11-21T05:04:19;0.87;;;0.67;;
12921;SDS011;6528;48.086;16.282;2023-11-21T05:06:49;0.80;;;0.80;;
12921;SDS011;6528;48.086;16.282;2023-11-21T05:09:16;1.00;;;0.90;;
12921;SDS011;6528;48.086;16.282;2023-11-21T05:11:44;0.83;;;0.70;;
12921;SDS011;6528;48.086;16.282;2023-11-21T05:14:11;1.03;;;0.93;;
12921;SDS011;6528;48.086;16.282;2023-11-21T05:16:40;1.37;;;0.90;;
12921;SDS011;6528;48.086;16.282;2023-11-21T05:19:07;0.73;;;0.73;;
12921;SDS011;6528;48.086;16.282;2023-11-21T05:21:34;1.00;;;0.77;;
12921;SDS011;6528;48.086;16.282;2023-11-21T05:24:02;1.00;;;0.90;;
12921;SDS011;6528;48.086;16.282;2023-11-21T05:26:30;0.90;;;0.73;;
12921;SDS011;6528;48.086;16.282;2023-11-21T05:28:58;0.90;;;0.70;;
12921;SDS011;6528;48.086;16.282;2023-11-21T05:31:25;1.90;;;1.07;;
12921;SDS011;6528;48.086;16.282;2023-11-21T05:33:53;0.67;;;0.67;;
12921;SDS011;6528;48.086;16.282;2023-11-21T05:36:21;1.60;;;1.17;;
12921;SDS011;6528;48.086;16.282;2023-11-21T05:38:48;0.70;;;0.70;;
12921;SDS011;6528;48.086;16.282;2023-11-21T05:41:16;0.83;;;0.83;;
12921;SDS011;6528;48.086;16.282;2023-11-21T05:43:43;0.70;;;0.70;;
12921;SDS011;6528;48.086;16.282;2023-11-21T05:46:11;1.00;;;0.90;;
12921;SDS011;6528;48.086;16.282;2023-11-21T05:48:40;1.77;;;1.07;;
12921;SDS011;6528;48.086;16.282;2023-11-21T05:51:07;0.60;;;0.60;;
12921;SDS011;6528;48.086;16.282;2023-11-21T05:53:35;0.90;;;0.70;;
12921;SDS011;6528;48.086;16.282;2023-11-21T05:56:02;1.00;;;0.80;;
12921;SDS011;6528;48.086;16.282;2023-11-21T05:58:30;1.03;;;0.77;;
12921;SDS011;6528;48.086;16.282;2023-11-21T06:00:57;1.47;;;1.30;;
12921;SDS011;6528;48.086;16.282;2023-11-21T06:03:25;1.40;;;0.90;;
12921;SDS011;6528;48.086;16.282;2023-11-21T06:05:52;1.27;;;1.10;;
12921;SDS011;6528;48.086;16.282;2023-11-21T06:08:20;1.17;;;0.93;;
12921;SDS011;6528;48.086;16.282;2023-11-21T06:10:48;1.10;;;1.00;;
12921;SDS011;6528;48.086;16.282;2023-11-21T06:13:16;2.83;;;0.90;;
12921;SDS011;6528;48.086;16.282;2023-11-21T06:15:47;1.20;;;1.10;;
12921;SDS011;6528;48.086;16.282;2023-11-21T06:18:14;1.13;;;0.90;;
12921;SDS011;6528;48.086;16.282;2023-11-21T06:20:42;0.80;;;0.80;;
12921;SDS011;6528;48.086;16.282;2023-11-21T06:23:09;1.17;;;1.00;;
12921;SDS011;6528;48.086;16.282;2023-11-21T06:25:37;2.20;;;0.90;;
12921;SDS011;6528;48.086;16.282;2023-11-21T06:28:05;1.40;;;0.93;;
12921;SDS011;6528;48.086;16.282;2023-11-21T06:30:32;1.30;;;1.03;;
12921;SDS011;6528;48.086;16.282;2023-11-21T06:33:00;1.47;;;0.90;;
12921;SDS011;6528;48.086;16.282;2023-11-21T06:35:27;1.03;;;0.93;;
12921;SDS011;6528;48.086;16.282;2023-11-21T06:37:57;1.13;;;1.03;;
12921;SDS011;6528;48.086;16.282;2023-11-21T06:40:24;1.00;;;0.90;;
12921;SDS011;6528;48.086;16.282;2023-11-21T06:42:51;0.80;;;0.80;;
12921;SDS011;6528;48.086;16.282;2023-11-21T06:45:19;2.20;;;1.10;;
12921;SDS011;6528;48.086;16.282;2023-11-21T06:47:47;2.20;;;1.17;;
12921;SDS011;6528;48.086;16.282;2023-11-21T06:50:15;1.63;;;1.30;;
12921;SDS011;6528;48.086;16.282;2023-11-21T06:52:42;2.53;;;1.43;;
12921;SDS011;6528;48.086;16.282;2023-11-21T06:55:10;3.53;;;1.30;;
12921;SDS011;6528;48.086;16.282;2023-11-21T06:57:38;1.83;;;1.33;;
12921;SDS011;6528;48.086;16.282;2023-11-21T07:00:05;4.13;;;1.40;;
12921;SDS011;6528;48.086;16.282;2023-11-21T07:02:36;4.43;;;1.50;;
12921;SDS011;6528;48.086;16.282;2023-11-21T07:05:04;1.27;;;1.17;;
12921;SDS011;6528;48.086;16.282;2023-11-21T07:07:32;3.67;;;1.33;;
12921;SDS011;6528;48.086;16.282;2023-11-21T07:10:03;1.50;;;1.40;;
12921;SDS011;6528;48.086;16.282;2023-11-21T07:12:32;1.53;;;1.43;;
12921;SDS011;6528;48.086;16.282;2023-11-21T07:15:01;2.17;;;1.60;;
12921;SDS011;6528;48.086;16.282;2023-11-21T07:17:29;1.80;;;1.70;;
12921;SDS011;6528;48.086;16.282;2023-11-21T07:19:58;3.53;;;1.90;;
12921;SDS011;6528;48.086;16.282;2023-11-21T07:22:26;3.67;;;1.60;;
12921;SDS011;6528;48.086;16.282;2023-11-21T07:24:53;1.63;;;1.50;;
12921;SDS011;6528;48.086;16.282;2023-11-21T07:27:20;2.33;;;1.80;;
12921;SDS011;6528;48.086;16.282;2023-11-21T07:29:48;3.17;;;2.03;;
12921;SDS011;6528;48.086;16.282;2023-11-21T07:32:15;1.83;;;1.73;;
12921;SDS011;6528;48.086;16.282;2023-11-21T07:34:43;2.80;;;1.53;;
12921;SDS011;6528;48.086;16.282;2023-11-21T07:37:10;2.53;;;1.83;;
12921;SDS011;6528;48.086;16.282;2023-11-21T07:39:37;1.77;;;1.67;;
12921;SDS011;6528;48.086;16.282;2023-11-21T07:42:09;2.60;;;2.00;;
12921;SDS011;6528;48.086;16.282;2023-11-21T07:44:37;2.00;;;1.70;;
12921;SDS011;6528;48.086;16.282;2023-11-21T07:47:05;2.33;;;1.97;;
12921;SDS011;6528;48.086;16.282;2023-11-21T07:49:32;2.50;;;2.20;;
12921;SDS011;6528;48.086;16.282;2023-11-21T07:52:00;2.80;;;2.23;;
12921;SDS011;6528;48.086;16.282;2023-11-21T07:54:27;2.30;;;2.10;;
12921;SDS011;6528;48.086;16.282;2023-11-21T07:56:55;3.43;;;2.00;;
12921;SDS011;6528;48.086;16.282;2023-11-21T07:59:22;1.70;;;1.60;;
12921;SDS011;6528;48.086;16.282;2023-11-21T08:01:49;2.33;;;2.13;;
12921;SDS011;6528;48.086;16.282;2023-11-21T08:04:17;1.70;;;1.60;;
12921;SDS011;6528;48.086;16.282;2023-11-21T08:06:45;2.53;;;2.30;;
12921;SDS011;6528;48.086;16.282;2023-11-21T08:09:12;2.63;;;2.10;;
12921;SDS011;6528;48.086;16.282;2023-11-21T08:11:41;2.10;;;1.90;;
12921;SDS011;6528;48.086;16.282;2023-11-21T08:14:08;2.27;;;2.03;;
12921;SDS011;6528;48.086;16.282;2023-11-21T08:16:36;2.30;;;1.97;;
12921;SDS011;6528;48.086;16.282;2023-11-21T08:19:03;2.40;;;2.20;;
12921;SDS011;6528;48.086;16.282;2023-11-21T08:21:31;2.67;;;2.47;;
12921;SDS011;6528;48.086;16.282;2023-11-21T08:23:58;2.00;;;1.90;;
12921;SDS011;6528;48.086;16.282;2023-11-21T08:26:26;2.07;;;1.93;;
12921;SDS011;6528;48.086;16.282;2023-11-21T08:28:54;2.77;;;2.23;;
12921;SDS011;6528;48.086;16.282;2023-11-21T08:31:24;3.80;;;2.10;;
12921;SDS011;6528;48.086;16.282;2023-11-21T08:33:52;2.57;;;2.37;;
12921;SDS011;6528;48.086;16.282;2023-11-21T08:36:23;2.40;;;2.20;;
12921;SDS011;6528;48.086;16.282;2023-11-21T08:38:51;3.20;;;2.90;;
12921;SDS011;6528;48.086;16.282;2023-11-21T08:41:19;2.80;;;2.60;;
12921;SDS011;6528;48.086;16.282;2023-11-21T08:43:50;4.93;;;2.63;;
12921;SDS011;6528;48.086;16.282;2023-11-21T08:46:18;4.03;;;2.93;;
12921;SDS011;6528;48.086;16.282;2023-11-21T08:48:47;3.33;;;2.93;;
12921;SDS011;6528;48.086;16.282;2023-11-21T08:51:14;4.77;;;3.00;;
12921;SDS011;6528;48.086;16.282;2023-11-21T08:53:42;3.70;;;3.07;;
12921;SDS011;6528;48.086;16.282;2023-11-21T08:56:13;3.97;;;3.40;;
12921;SDS011;6528;48.086;16.282;2023-11-21T08:58:41;3.93;;;3.50;;
12921;SDS011;6528;48.086;16.282;2023-11-21T09:01:09;4.27;;;3.40;;
12921;SDS011;6528;48.086;16.282;2023-11-21T09:03:36;5.07;;;3.87;;
12921;SDS011;6528;48.086;16.282;2023-11-21T09:06:04;3.67;;;3.37;;
12921;SDS011;6528;48.086;16.282;2023-11-21T09:08:32;4.60;;;3.77;;
12921;SDS011;6528;48.086;16.282;2023-11-21T09:11:00;3.50;;;3.20;;
12921;SDS011;6528;48.086;16.282;2023-11-21T09:13:27;4.00;;;3.20;;
12921;SDS011;6528;48.086;16.282;2023-11-21T09:15:56;8.17;;;3.30;;
12921;SDS011;6528;48.086;16.282;2023-11-21T09:18:23;3.70;;;3.40;;
12921;SDS011;6528;48.086;16.282;2023-11-21T09:20:51;3.77;;;3.30;;
12921;SDS011;6528;48.086;16.282;2023-11-21T09:23:18;4.50;;;3.97;;
12921;SDS011;6528;48.086;16.282;2023-11-21T09:25:45;3.63;;;3.20;;
12921;SDS011;6528;48.086;16.282;2023-11-21T09:28:16;3.50;;;3.00;;
12921;SDS011;6528;48.086;16.282;2023-11-21T09:30:44;4.07;;;3.30;;
12921;SDS011;6528;48.086;16.282;2023-11-21T09:33:11;4.27;;;3.27;;
12921;SDS011;6528;48.086;16.282;2023-11-21T09:35:38;5.50;;;4.23;;
12921;SDS011;6528;48.086;16.282;2023-11-21T09:38:06;5.23;;;3.77;;
12921;SDS011;6528;48.086;16.282;2023-11-21T09:40:38;4.27;;;3.87;;
12921;SDS011;6528;48.086;16.282;2023-11-21T09:43:15;5.67;;;4.30;;
12921;SDS011;6528;48.086;16.282;2023-11-21T09:45:45;4.73;;;4.33;;
12921;SDS011;6528;48.086;16.282;2023-11-21T09:48:14;6.13;;;4.03;;
12921;SDS011;6528;48.086;16.282;2023-11-21T09:50:43;6.37;;;4.37;;
12921;SDS011;6528;48.086;16.282;2023-11-21T09:55:42;5.70;;;4.23;;
12921;SDS011;6528;48.086;16.282;2023-11-21T09:58:11;5.50;;;4.43;;
12921;SDS011;6528;48.086;16.282;2023-11-21T10:00:43;5.53;;;5.03;;
12921;SDS011;6528;48.086;16.282;2023-11-21T10:03:13;5.73;;;4.67;;
12921;SDS011;6528;48.086;16.282;2023-11-21T10:05:48;6.27;;;4.80;;
12921;SDS011;6528;48.086;16.282;2023-11-21T10:08:17;4.97;;;4.47;;
12921;SDS011;6528;48.086;16.282;2023-11-21T10:10:49;4.93;;;4.43;;
12921;SDS011;6528;48.086;16.282;2023-11-21T10:13:20;4.60;;;4.20;;
12921;SDS011;6528;48.086;16.282;2023-11-21T10:15:51;9.40;;;5.40;;
12921;SDS011;6528;48.086;16.282;2023-11-21T10:18:20;6.50;;;4.43;;
12921;SDS011;6528;48.086;16.282;2023-11-21T10:20:49;6.03;;;4.50;;
12921;SDS011;6528;48.086;16.282;2023-11-21T10:23:23;6.03;;;4.50;;
12921;SDS011;6528;48.086;16.282;2023-11-21T10:25:52;5.30;;;4.73;;
12921;SDS011;6528;48.086;16.282;2023-11-21T10:28:21;4.93;;;4.30;;
12921;SDS011;6528;48.086;16.282;2023-11-21T10:30:48;7.00;;;4.90;;
12921;SDS011;6528;48.086;16.282;2023-11-21T10:33:16;6.60;;;5.53;;
12921;SDS011;6528;48.086;16.282;2023-11-21T10:38:18;6.50;;;4.63;;
12921;SDS011;6528;48.086;16.282;2023-11-21T10:40:48;5.97;;;5.37;;
12921;SDS011;6528;48.086;16.282;2023-11-21T10:43:16;6.97;;;5.00;;
12921;SDS011;6528;48.086;16.282;2023-11-21T10:45:45;6.97;;;4.33;;
12921;SDS011;6528;48.086;16.282;2023-11-21T10:48:13;7.43;;;4.80;;
12921;SDS011;6528;48.086;16.282;2023-11-21T10:50:45;4.50;;;4.00;;
12921;SDS011;6528;48.086;16.282;2023-11-21T10:53:14;7.40;;;4.70;;
12921;SDS011;6528;48.086;16.282;2023-11-21T10:55:42;4.93;;;4.43;;
12921;SDS011;6528;48.086;16.282;2023-11-21T10:58:11;5.30;;;4.80;;
12921;SDS011;6528;48.086;16.282;2023-11-21T11:00:41;4.53;;;4.10;;
12921;SDS011;6528;48.086;16.282;2023-11-21T11:03:12;5.20;;;4.67;;
12921;SDS011;6528;48.086;16.282;2023-11-21T11:05:43;5.30;;;4.80;;
12921;SDS011;6528;48.086;16.282;2023-11-21T11:08:21;5.13;;;4.57;;
12921;SDS011;6528;48.086;16.282;2023-11-21T11:10:54;7.53;;;5.20;;
12921;SDS011;6528;48.086;16.282;2023-11-21T11:13:22;5.67;;;4.27;;
12921;SDS011;6528;48.086;16.282;2023-11-21T11:15:51;4.40;;;4.00;;
12921;SDS011;6528;48.086;16.282;2023-11-21T11:18:26;4.63;;;4.23;;
12921;SDS011;6528;48.086;16.282;2023-11-21T11:32:16;5.73;;;4.80;;
12921;SDS011;6528;48.086;16.282;2023-11-21T11:35:04;5.67;;;3.93;;
12921;SDS011;6528;48.086;16.282;2023-11-21T11:37:37;5.30;;;3.50;;
12921;SDS011;6528;48.086;16.282;2023-11-21T11:40:07;4.50;;;4.10;;
12921;SDS011;6528;48.086;16.282;2023-11-21T11:42:37;5.27;;;4.03;;
12921;SDS011;6528;48.086;16.282;2023-11-21T11:45:23;4.30;;;3.50;;
12921;SDS011;6528;48.086;16.282;2023-11-21T11:48:00;4.30;;;3.90;;
12921;SDS011;6528;48.086;16.282;2023-11-21T11:50:29;4.20;;;3.70;;
12921;SDS011;6528;48.086;16.282;2023-11-21T11:53:11;4.33;;;3.80;;
12921;SDS011;6528;48.086;16.282;2023-11-21T11:55:42;3.90;;;3.60;;
12921;SDS011;6528;48.086;16.282;2023-11-21T11:58:11;4.47;;;3.77;;
12921;SDS011;6528;48.086;16.282;2023-11-21T12:00:38;4.47;;;3.90;;
12921;SDS011;6528;48.086;16.282;2023-11-21T12:03:08;3.67;;;3.33;;
12921;SDS011;6528;48.086;16.282;2023-11-21T12:05:36;4.60;;;4.10;;
12921;SDS011;6528;48.086;16.282;2023-11-21T12:08:08;4.20;;;3.57;;
12921;SDS011;6528;48.086;16.282;2023-11-21T12:10:37;3.80;;;3.47;;
12921;SDS011;6528;48.086;16.282;2023-11-21T12:13:09;3.73;;;3.40;;
12921;SDS011;6528;48.086;16.282;2023-11-21T12:15:39;5.50;;;3.87;;
12921;SDS011;6528;48.086;16.282;2023-11-21T12:18:08;4.03;;;3.63;;
12921;SDS011;6528;48.086;16.282;2023-11-21T12:20:36;4.10;;;3.67;;
12921;SDS011;6528;48.086;16.282;2023-11-21T12:23:06;3.47;;;3.10;;
12921;SDS011;6528;48.086;16.282;2023-11-21T12:25:36;4.13;;;3.53;;
12921;SDS011;6528;48.086;16.282;2023-11-21T12:28:04;4.47;;;4.07;;
12921;SDS011;6528;48.086;16.282;2023-11-21T12:30:33;4.80;;;3.80;;
12921;SDS011;6528;48.086;16.282;2023-11-21T12:33:02;3.97;;;2.93;;
12921;SDS011;6528;48.086;16.282;2023-11-21T12:50:12;4.07;;;3.67;;
12921;SDS011;6528;48.086;16.282;2023-11-21T12:52:46;3.87;;;3.20;;
12921;SDS011;6528;48.086;16.282;2023-11-21T12:55:15;3.77;;;3.33;;
12921;SDS011;6528;48.086;16.282;2023-11-21T12:57:44;5.90;;;3.30;;
12921;SDS011;6528;48.086;16.282;2023-11-21T13:00:12;3.17;;;2.90;;
12921;SDS011;6528;48.086;16.282;2023-11-21T13:02:51;3.33;;;3.03;;
12921;SDS011;6528;48.086;16.282;2023-11-21T13:05:24;3.53;;;3.23;;
12921;SDS011;6528;48.086;16.282;2023-11-21T13:07:57;2.80;;;2.40;;
12921;SDS011;6528;48.086;16.282;2023-11-21T13:10:29;2.90;;;2.60;;
12921;SDS011;6528;48.086;16.282;2023-11-21T13:12:58;2.97;;;2.73;;
12921;SDS011;6528;48.086;16.282;2023-11-21T13:15:27;2.93;;;2.53;;
12921;SDS011;6528;48.086;16.282;2023-11-21T13:17:54;3.43;;;3.13;;
12921;SDS011;6528;48.086;16.282;2023-11-21T13:20:24;2.53;;;2.20;;
12921;SDS011;6528;48.086;16.282;2023-11-21T13:22:53;2.67;;;2.47;;
12921;SDS011;6528;48.086;16.282;2023-11-21T13:25:26;2.70;;;2.50;;
12921;SDS011;6528;48.086;16.282;2023-11-21T13:27:54;2.97;;;2.67;;
12921;SDS011;6528;48.086;16.282;2023-11-21T13:30:23;3.10;;;2.80;;
12921;SDS011;6528;48.086;16.282;2023-11-21T13:32:54;2.50;;;2.30;;
12921;SDS011;6528;48.086;16.282;2023-11-21T13:35:28;2.70;;;2.50;;
12921;SDS011;6528;48.086;16.282;2023-11-21T13:38:15;2.63;;;2.10;;
12921;SDS011;6528;48.086;16.282;2023-11-21T13:40:58;2.97;;;2.67;;
12921;SDS011;6528;48.086;16.282;2023-11-21T13:43:26;3.90;;;2.43;;
12921;SDS011;6528;48.086;16.282;2023-11-21T13:45:55;3.47;;;2.80;;
12921;SDS011;6528;48.086;16.282;2023-11-21T13:48:29;2.30;;;2.10;;
12921;SDS011;6528;48.086;16.282;2023-11-21T13:51:09;2.77;;;2.57;;
12921;SDS011;6528;48.086;16.282;2023-11-21T13:53:44;3.53;;;2.80;;
12921;SDS011;6528;48.086;16.282;2023-11-21T13:56:17;2.50;;;2.30;;
12921;SDS011;6528;48.086;16.282;2023-11-21T13:58:52;2.53;;;2.33;;
12921;SDS011;6528;48.086;16.282;2023-11-21T14:01:22;3.80;;;2.90;;
12921;SDS011;6528;48.086;16.282;2023-11-21T14:03:51;2.20;;;2.00;;
12921;SDS011;6528;48.086;16.282;2023-11-21T14:06:24;2.77;;;2.57;;
12921;SDS011;6528;48.086;16.282;2023-11-21T14:08:59;1.83;;;1.73;;
12921;SDS011;6528;48.086;16.282;2023-11-21T14:11:33;3.13;;;2.60;;
12921;SDS011;6528;48.086;16.282;2023-11-21T14:14:08;2.20;;;1.93;;
12921;SDS011;6528;48.086;16.282;2023-11-21T14:16:36;2.90;;;2.60;;
12921;SDS011;6528;48.086;16.282;2023-11-21T14:19:04;2.63;;;2.23;;
12921;SDS011;6528;48.086;16.282;2023-11-21T14:21:43;2.73;;;2.53;;
12921;SDS011;6528;48.086;16.282;2023-11-21T14:24:11;1.90;;;1.80;;
12921;SDS011;6528;48.086;16.282;2023-11-21T14:26:40;1.77;;;1.67;;
12921;SDS011;6528;48.086;16.282;2023-11-21T14:29:09;2.67;;;2.47;;
12921;SDS011;6528;48.086;16.282;2023-11-21T14:31:40;2.60;;;2.40;;
12921;SDS011;6528;48.086;16.282;2023-11-21T14:34:08;2.30;;;2.10;;
12921;SDS011;6528;48.086;16.282;2023-11-21T14:36:35;1.93;;;1.83;;
12921;SDS011;6528;48.086;16.282;2023-11-21T14:39:10;2.73;;;2.10;;
12921;SDS011;6528;48.086;16.282;2023-11-21T14:41:50;2.27;;;2.07;;
12921;SDS011;6528;48.086;16.282;2023-11-21T14:44:19;2.10;;;1.90;;
12921;SDS011;6528;48.086;16.282;2023-11-21T14:46:50;2.87;;;1.80;;
12921;SDS011;6528;48.086;16.282;2023-11-21T14:49:19;2.57;;;2.37;;
12921;SDS011;6528;48.086;16.282;2023-11-21T14:51:47;2.70;;;2.30;;
12921;SDS011;6528;48.086;16.282;2023-11-21T14:54:50;1.70;;;1.60;;
12921;SDS011;6528;48.086;16.282;2023-11-21T14:57:30;1.97;;;1.77;;
12921;SDS011;6528;48.086;16.282;2023-11-21T14:59:57;1.67;;;1.57;;
12921;SDS011;6528;48.086;16.282;2023-11-21T15:02:25;1.80;;;1.70;;
12921;SDS011;6528;48.086;16.282;2023-11-21T15:05:11;2.43;;;2.17;;
12921;SDS011;6528;48.086;16.282;2023-11-21T15:07:43;1.90;;;1.80;;
12921;SDS011;6528;48.086;16.282;2023-11-21T15:10:15;1.70;;;1.60;;
12921;SDS011;6528;48.086;16.282;2023-11-21T15:12:43;1.70;;;1.60;;
12921;SDS011;6528;48.086;16.282;2023-11-21T15:15:11;2.20;;;2.00;;
12921;SDS011;6528;48.086;16.282;2023-11-21T15:17:41;2.10;;;1.90;;
12921;SDS011;6528;48.086;16.282;2023-11-21T15:20:10;2.40;;;2.20;;
12921;SDS011;6528;48.086;16.282;2023-11-21T15:22:45;3.03;;;2.10;;
12921;SDS011;6528;48.086;16.282;2023-11-21T15:25:13;1.73;;;1.63;;
12921;SDS011;6528;48.086;16.282;2023-11-21T15:27:40;2.37;;;2.07;;
12921;SDS011;6528;48.086;16.282;2023-11-21T15:30:08;2.00;;;1.80;;
12921;SDS011;6528;48.086;16.282;2023-11-21T15:32:36;1.53;;;1.30;;
12921;SDS011;6528;48.086;16.282;2023-11-21T15:35:03;1.77;;;1.67;;
12921;SDS011;6528;48.086;16.282;2023-11-21T15:37:31;2.20;;;2.00;;